sensor_id;sensor_type;location;lat;lon;timestamp;P1;durP1;ratioP1;P2;durP2;ratioP2
72557;SDS011;60583;50.094;8.748;2023-06-22T00:00:57;10.00;;;7.03;;
72557;SDS011;60583;50.094;8.748;2023-06-22T00:03:23;9.88;;;6.75;;
72557;SDS011;60583;50.094;8.748;2023-06-22T00:05:50;9.50;;;6.75;;
72557;SDS011;60583;50.094;8.748;2023-06-22T00:08:16;10.43;;;7.22;;
72557;SDS011;60583;50.094;8.748;2023-06-22T00:10:42;9.93;;;7.10;;
72557;SDS011;60583;50.094;8.748;2023-06-22T00:13:08;10.80;;;6.75;;
72557;SDS011;60583;50.094;8.748;2023-06-22T00:15:35;9.52;;;6.82;;
72557;SDS011;60583;50.094;8.748;2023-06-22T00:18:01;9.85;;;7.00;;
72557;SDS011;60583;50.094;8.748;2023-06-22T00:20:27;10.98;;;7.70;;
72557;SDS011;60583;50.094;8.748;2023-06-22T00:22:56;19.83;;;15.95;;
72557;SDS011;60583;50.094;8.748;2023-06-22T00:25:23;36.78;;;30.92;;
72557;SDS011;60583;50.094;8.748;2023-06-22T00:27:49;27.48;;;24.58;;
72557;SDS011;60583;50.094;8.748;2023-06-22T00:30:15;13.70;;;11.55;;
72557;SDS011;60583;50.094;8.748;2023-06-22T00:32:41;11.48;;;8.23;;
72557;SDS011;60583;50.094;8.748;2023-06-22T00:35:07;9.00;;;6.88;;
72557;SDS011;60583;50.094;8.748;2023-06-22T00:37:32;9.13;;;7.10;;
72557;SDS011;60583;50.094;8.748;2023-06-22T00:39:58;10.60;;;6.82;;
72557;SDS011;60583;50.094;8.748;2023-06-22T00:42:24;9.80;;;6.93;;
72557;SDS011;60583;50.094;8.748;2023-06-22T00:44:49;11.02;;;7.43;;
72557;SDS011;60583;50.094;8.748;2023-06-22T00:47:15;10.52;;;7.53;;
72557;SDS011;60583;50.094;8.748;2023-06-22T00:49:43;9.50;;;7.22;;
72557;SDS011;60583;50.094;8.748;2023-06-22T00:52:09;9.10;;;6.60;;
72557;SDS011;60583;50.094;8.748;2023-06-22T00:54:39;8.40;;;6.90;;
72557;SDS011;60583;50.094;8.748;2023-06-22T00:57:08;8.27;;;6.30;;
72557;SDS011;60583;50.094;8.748;2023-06-22T00:59:36;10.32;;;6.97;;
72557;SDS011;60583;50.094;8.748;2023-06-22T01:02:02;9.52;;;6.97;;
72557;SDS011;60583;50.094;8.748;2023-06-22T01:04:34;9.02;;;6.60;;
72557;SDS011;60583;50.094;8.748;2023-06-22T01:10:03;9.55;;;6.32;;
72557;SDS011;60583;50.094;8.748;2023-06-22T01:12:45;9.02;;;6.47;;
72557;SDS011;60583;50.094;8.748;2023-06-22T01:15:14;8.52;;;6.55;;
72557;SDS011;60583;50.094;8.748;2023-06-22T01:17:46;9.75;;;6.75;;
72557;SDS011;60583;50.094;8.748;2023-06-22T01:20:14;8.95;;;6.82;;
72557;SDS011;60583;50.094;8.748;2023-06-22T01:22:46;9.68;;;7.20;;
72557;SDS011;60583;50.094;8.748;2023-06-22T01:25:31;10.55;;;7.57;;
72557;SDS011;60583;50.094;8.748;2023-06-22T01:30:42;11.02;;;7.28;;
72557;SDS011;60583;50.094;8.748;2023-06-22T01:33:10;10.40;;;7.22;;
72557;SDS011;60583;50.094;8.748;2023-06-22T01:35:38;10.60;;;8.02;;
72557;SDS011;60583;50.094;8.748;2023-06-22T01:38:04;10.20;;;8.10;;
72557;SDS011;60583;50.094;8.748;2023-06-22T01:40:31;10.65;;;7.88;;
72557;SDS011;60583;50.094;8.748;2023-06-22T01:43:00;10.20;;;7.97;;
72557;SDS011;60583;50.094;8.748;2023-06-22T01:45:27;11.32;;;7.90;;
72557;SDS011;60583;50.094;8.748;2023-06-22T01:47:53;13.02;;;8.93;;
72557;SDS011;60583;50.094;8.748;2023-06-22T01:50:19;10.60;;;8.60;;
72557;SDS011;60583;50.094;8.748;2023-06-22T01:52:45;10.30;;;8.30;;
72557;SDS011;60583;50.094;8.748;2023-06-22T01:55:10;11.90;;;8.18;;
72557;SDS011;60583;50.094;8.748;2023-06-22T01:57:36;11.75;;;8.27;;
72557;SDS011;60583;50.094;8.748;2023-06-22T02:02:37;10.85;;;8.07;;
72557;SDS011;60583;50.094;8.748;2023-06-22T02:05:26;14.00;;;9.15;;
72557;SDS011;60583;50.094;8.748;2023-06-22T02:07:59;12.07;;;8.77;;
72557;SDS011;60583;50.094;8.748;2023-06-22T02:10:31;11.07;;;8.55;;
72557;SDS011;60583;50.094;8.748;2023-06-22T02:12:59;12.80;;;8.60;;
72557;SDS011;60583;50.094;8.748;2023-06-22T02:15:27;12.00;;;8.85;;
72557;SDS011;60583;50.094;8.748;2023-06-22T02:17:54;12.77;;;8.88;;
72557;SDS011;60583;50.094;8.748;2023-06-22T02:20:20;11.82;;;9.02;;
72557;SDS011;60583;50.094;8.748;2023-06-22T02:22:45;11.35;;;8.60;;
72557;SDS011;60583;50.094;8.748;2023-06-22T02:25:11;11.27;;;8.73;;
72557;SDS011;60583;50.094;8.748;2023-06-22T02:27:36;12.07;;;9.00;;
72557;SDS011;60583;50.094;8.748;2023-06-22T02:30:05;11.93;;;8.90;;
72557;SDS011;60583;50.094;8.748;2023-06-22T02:32:34;12.48;;;9.50;;
72557;SDS011;60583;50.094;8.748;2023-06-22T02:35:00;13.07;;;9.65;;
72557;SDS011;60583;50.094;8.748;2023-06-22T02:37:29;11.68;;;8.90;;
72557;SDS011;60583;50.094;8.748;2023-06-22T02:39:55;12.00;;;8.70;;
72557;SDS011;60583;50.094;8.748;2023-06-22T02:42:20;13.90;;;8.80;;
72557;SDS011;60583;50.094;8.748;2023-06-22T02:44:46;11.45;;;8.77;;
72557;SDS011;60583;50.094;8.748;2023-06-22T02:47:12;12.52;;;9.60;;
72557;SDS011;60583;50.094;8.748;2023-06-22T02:49:38;12.63;;;9.20;;
72557;SDS011;60583;50.094;8.748;2023-06-22T02:52:03;12.68;;;9.75;;
72557;SDS011;60583;50.094;8.748;2023-06-22T02:54:29;11.60;;;8.73;;
72557;SDS011;60583;50.094;8.748;2023-06-22T02:56:54;11.35;;;9.07;;
72557;SDS011;60583;50.094;8.748;2023-06-22T02:59:20;14.45;;;10.40;;
72557;SDS011;60583;50.094;8.748;2023-06-22T03:01:51;13.13;;;10.43;;
72557;SDS011;60583;50.094;8.748;2023-06-22T03:04:17;13.07;;;9.70;;
72557;SDS011;60583;50.094;8.748;2023-06-22T03:06:43;12.93;;;8.90;;
72557;SDS011;60583;50.094;8.748;2023-06-22T03:09:08;12.90;;;9.00;;
72557;SDS011;60583;50.094;8.748;2023-06-22T03:11:34;12.98;;;10.00;;
72557;SDS011;60583;50.094;8.748;2023-06-22T03:14:00;13.52;;;9.88;;
72557;SDS011;60583;50.094;8.748;2023-06-22T03:16:27;12.93;;;9.63;;
72557;SDS011;60583;50.094;8.748;2023-06-22T03:18:52;13.85;;;10.43;;
72557;SDS011;60583;50.094;8.748;2023-06-22T03:21:19;12.63;;;9.48;;
72557;SDS011;60583;50.094;8.748;2023-06-22T03:23:45;13.30;;;9.90;;
72557;SDS011;60583;50.094;8.748;2023-06-22T03:26:10;14.07;;;9.98;;
72557;SDS011;60583;50.094;8.748;2023-06-22T03:28:36;13.63;;;9.25;;
72557;SDS011;60583;50.094;8.748;2023-06-22T03:31:03;13.25;;;10.10;;
72557;SDS011;60583;50.094;8.748;2023-06-22T03:33:28;13.73;;;9.88;;
72557;SDS011;60583;50.094;8.748;2023-06-22T03:35:54;11.18;;;8.32;;
72557;SDS011;60583;50.094;8.748;2023-06-22T03:38:20;12.23;;;9.40;;
72557;SDS011;60583;50.094;8.748;2023-06-22T03:40:45;11.90;;;9.15;;
72557;SDS011;60583;50.094;8.748;2023-06-22T03:43:11;11.68;;;9.05;;
72557;SDS011;60583;50.094;8.748;2023-06-22T03:45:36;11.43;;;8.82;;
72557;SDS011;60583;50.094;8.748;2023-06-22T03:48:02;10.45;;;8.07;;
72557;SDS011;60583;50.094;8.748;2023-06-22T03:50:28;11.82;;;8.43;;
72557;SDS011;60583;50.094;8.748;2023-06-22T03:52:53;12.63;;;9.68;;
72557;SDS011;60583;50.094;8.748;2023-06-22T03:55:19;12.00;;;9.52;;
72557;SDS011;60583;50.094;8.748;2023-06-22T03:57:45;11.88;;;9.00;;
72557;SDS011;60583;50.094;8.748;2023-06-22T04:00:11;12.13;;;8.80;;
72557;SDS011;60583;50.094;8.748;2023-06-22T04:02:37;14.30;;;9.88;;
72557;SDS011;60583;50.094;8.748;2023-06-22T04:05:02;13.05;;;9.70;;
72557;SDS011;60583;50.094;8.748;2023-06-22T04:07:28;15.57;;;10.20;;
72557;SDS011;60583;50.094;8.748;2023-06-22T04:09:53;13.77;;;9.77;;
72557;SDS011;60583;50.094;8.748;2023-06-22T04:12:18;13.55;;;10.23;;
72557;SDS011;60583;50.094;8.748;2023-06-22T04:14:44;13.30;;;10.82;;
72557;SDS011;60583;50.094;8.748;2023-06-22T04:17:09;12.27;;;9.18;;
72557;SDS011;60583;50.094;8.748;2023-06-22T04:19:34;13.27;;;10.38;;
72557;SDS011;60583;50.094;8.748;2023-06-22T04:22:00;12.52;;;9.57;;
72557;SDS011;60583;50.094;8.748;2023-06-22T04:24:25;11.90;;;9.50;;
72557;SDS011;60583;50.094;8.748;2023-06-22T04:26:51;13.15;;;9.77;;
72557;SDS011;60583;50.094;8.748;2023-06-22T04:29:19;13.35;;;9.70;;
72557;SDS011;60583;50.094;8.748;2023-06-22T04:31:45;12.27;;;9.55;;
72557;SDS011;60583;50.094;8.748;2023-06-22T04:34:16;13.05;;;9.88;;
72557;SDS011;60583;50.094;8.748;2023-06-22T04:36:42;13.02;;;9.95;;
72557;SDS011;60583;50.094;8.748;2023-06-22T04:39:10;12.75;;;9.90;;
72557;SDS011;60583;50.094;8.748;2023-06-22T04:41:40;12.60;;;9.73;;
72557;SDS011;60583;50.094;8.748;2023-06-22T04:44:09;12.38;;;9.23;;
72557;SDS011;60583;50.094;8.748;2023-06-22T04:46:39;12.93;;;10.35;;
72557;SDS011;60583;50.094;8.748;2023-06-22T04:49:06;15.15;;;10.88;;
72557;SDS011;60583;50.094;8.748;2023-06-22T04:51:39;13.85;;;10.75;;
72557;SDS011;60583;50.094;8.748;2023-06-22T04:54:05;14.25;;;10.05;;
72557;SDS011;60583;50.094;8.748;2023-06-22T04:56:31;14.38;;;10.25;;
72557;SDS011;60583;50.094;8.748;2023-06-22T04:58:57;14.43;;;10.35;;
72557;SDS011;60583;50.094;8.748;2023-06-22T05:01:23;14.77;;;10.10;;
72557;SDS011;60583;50.094;8.748;2023-06-22T05:03:49;12.60;;;9.70;;
72557;SDS011;60583;50.094;8.748;2023-06-22T05:06:14;12.93;;;10.18;;
72557;SDS011;60583;50.094;8.748;2023-06-22T05:08:40;13.15;;;10.07;;
72557;SDS011;60583;50.094;8.748;2023-06-22T05:11:06;13.38;;;9.60;;
72557;SDS011;60583;50.094;8.748;2023-06-22T05:13:31;14.68;;;11.05;;
72557;SDS011;60583;50.094;8.748;2023-06-22T05:15:57;15.95;;;10.35;;
72557;SDS011;60583;50.094;8.748;2023-06-22T05:18:30;13.57;;;9.88;;
72557;SDS011;60583;50.094;8.748;2023-06-22T05:20:55;12.20;;;9.68;;
72557;SDS011;60583;50.094;8.748;2023-06-22T05:23:21;12.90;;;9.77;;
72557;SDS011;60583;50.094;8.748;2023-06-22T05:25:46;12.75;;;10.18;;
72557;SDS011;60583;50.094;8.748;2023-06-22T05:28:12;12.32;;;9.45;;
72557;SDS011;60583;50.094;8.748;2023-06-22T05:30:38;13.88;;;10.13;;
72557;SDS011;60583;50.094;8.748;2023-06-22T05:33:03;14.10;;;10.23;;
72557;SDS011;60583;50.094;8.748;2023-06-22T05:35:29;11.52;;;9.38;;
72557;SDS011;60583;50.094;8.748;2023-06-22T05:37:54;11.88;;;9.60;;
72557;SDS011;60583;50.094;8.748;2023-06-22T05:40:20;12.85;;;10.63;;
72557;SDS011;60583;50.094;8.748;2023-06-22T05:42:46;13.02;;;10.02;;
72557;SDS011;60583;50.094;8.748;2023-06-22T05:45:12;14.00;;;10.05;;
72557;SDS011;60583;50.094;8.748;2023-06-22T05:47:37;13.77;;;10.13;;
72557;SDS011;60583;50.094;8.748;2023-06-22T05:50:03;12.57;;;9.90;;
72557;SDS011;60583;50.094;8.748;2023-06-22T05:52:31;13.77;;;9.93;;
72557;SDS011;60583;50.094;8.748;2023-06-22T05:54:57;13.70;;;10.27;;
72557;SDS011;60583;50.094;8.748;2023-06-22T05:57:23;12.65;;;10.38;;
72557;SDS011;60583;50.094;8.748;2023-06-22T05:59:48;13.85;;;9.68;;
72557;SDS011;60583;50.094;8.748;2023-06-22T06:02:14;16.48;;;12.80;;
72557;SDS011;60583;50.094;8.748;2023-06-22T06:04:40;13.52;;;10.23;;
72557;SDS011;60583;50.094;8.748;2023-06-22T06:07:05;14.52;;;10.23;;
72557;SDS011;60583;50.094;8.748;2023-06-22T06:09:30;13.73;;;10.00;;
72557;SDS011;60583;50.094;8.748;2023-06-22T06:11:56;12.60;;;9.65;;
72557;SDS011;60583;50.094;8.748;2023-06-22T06:14:21;13.65;;;10.25;;
72557;SDS011;60583;50.094;8.748;2023-06-22T06:16:48;13.68;;;9.73;;
72557;SDS011;60583;50.094;8.748;2023-06-22T06:19:14;13.65;;;9.13;;
72557;SDS011;60583;50.094;8.748;2023-06-22T06:21:39;12.80;;;9.52;;
72557;SDS011;60583;50.094;8.748;2023-06-22T06:24:04;12.18;;;9.98;;
72557;SDS011;60583;50.094;8.748;2023-06-22T06:26:30;13.50;;;10.23;;
72557;SDS011;60583;50.094;8.748;2023-06-22T06:28:58;13.55;;;9.82;;
72557;SDS011;60583;50.094;8.748;2023-06-22T06:31:24;11.45;;;9.10;;
72557;SDS011;60583;50.094;8.748;2023-06-22T06:33:52;14.35;;;10.07;;
72557;SDS011;60583;50.094;8.748;2023-06-22T06:36:19;12.70;;;9.43;;
72557;SDS011;60583;50.094;8.748;2023-06-22T06:38:44;12.60;;;9.50;;
72557;SDS011;60583;50.094;8.748;2023-06-22T06:41:12;13.18;;;9.60;;
72557;SDS011;60583;50.094;8.748;2023-06-22T06:43:41;11.35;;;9.23;;
72557;SDS011;60583;50.094;8.748;2023-06-22T06:46:08;13.63;;;9.15;;
72557;SDS011;60583;50.094;8.748;2023-06-22T06:48:34;11.10;;;9.02;;
72557;SDS011;60583;50.094;8.748;2023-06-22T06:50:59;12.48;;;9.50;;
72557;SDS011;60583;50.094;8.748;2023-06-22T06:53:25;13.10;;;9.38;;
72557;SDS011;60583;50.094;8.748;2023-06-22T06:55:50;12.63;;;9.00;;
72557;SDS011;60583;50.094;8.748;2023-06-22T06:58:15;13.32;;;9.45;;
72557;SDS011;60583;50.094;8.748;2023-06-22T07:00:41;12.63;;;9.15;;
72557;SDS011;60583;50.094;8.748;2023-06-22T07:03:08;14.18;;;9.25;;
72557;SDS011;60583;50.094;8.748;2023-06-22T07:05:34;13.40;;;9.25;;
72557;SDS011;60583;50.094;8.748;2023-06-22T07:08:00;11.73;;;9.45;;
72557;SDS011;60583;50.094;8.748;2023-06-22T07:10:26;13.32;;;9.43;;
72557;SDS011;60583;50.094;8.748;2023-06-22T07:12:51;13.65;;;9.15;;
72557;SDS011;60583;50.094;8.748;2023-06-22T07:15:17;12.45;;;9.13;;
72557;SDS011;60583;50.094;8.748;2023-06-22T07:17:42;12.18;;;9.27;;
72557;SDS011;60583;50.094;8.748;2023-06-22T07:20:08;14.10;;;10.23;;
72557;SDS011;60583;50.094;8.748;2023-06-22T07:22:35;12.32;;;10.07;;
72557;SDS011;60583;50.094;8.748;2023-06-22T07:25:03;13.82;;;10.73;;
72557;SDS011;60583;50.094;8.748;2023-06-22T07:27:38;14.48;;;9.55;;
72557;SDS011;60583;50.094;8.748;2023-06-22T07:30:08;13.10;;;9.57;;
72557;SDS011;60583;50.094;8.748;2023-06-22T07:32:34;12.43;;;9.70;;
72557;SDS011;60583;50.094;8.748;2023-06-22T07:35:00;13.30;;;9.70;;
72557;SDS011;60583;50.094;8.748;2023-06-22T07:37:26;12.93;;;9.68;;
72557;SDS011;60583;50.094;8.748;2023-06-22T07:39:53;14.48;;;9.02;;
72557;SDS011;60583;50.094;8.748;2023-06-22T07:42:23;11.63;;;9.75;;
72557;SDS011;60583;50.094;8.748;2023-06-22T07:44:51;11.93;;;9.35;;
72557;SDS011;60583;50.094;8.748;2023-06-22T07:47:17;13.13;;;11.07;;
72557;SDS011;60583;50.094;8.748;2023-06-22T07:49:44;13.00;;;9.32;;
72557;SDS011;60583;50.094;8.748;2023-06-22T07:52:10;11.73;;;9.90;;
72557;SDS011;60583;50.094;8.748;2023-06-22T07:54:36;12.93;;;9.73;;
72557;SDS011;60583;50.094;8.748;2023-06-22T07:57:01;13.00;;;10.35;;
72557;SDS011;60583;50.094;8.748;2023-06-22T07:59:27;12.93;;;10.35;;
72557;SDS011;60583;50.094;8.748;2023-06-22T08:01:52;11.98;;;10.25;;
72557;SDS011;60583;50.094;8.748;2023-06-22T08:04:18;11.80;;;9.48;;
72557;SDS011;60583;50.094;8.748;2023-06-22T08:06:44;12.82;;;10.30;;
72557;SDS011;60583;50.094;8.748;2023-06-22T08:09:09;11.45;;;9.85;;
72557;SDS011;60583;50.094;8.748;2023-06-22T08:11:34;12.88;;;9.95;;
72557;SDS011;60583;50.094;8.748;2023-06-22T08:14:00;13.63;;;10.02;;
72557;SDS011;60583;50.094;8.748;2023-06-22T08:16:25;13.02;;;9.75;;
72557;SDS011;60583;50.094;8.748;2023-06-22T08:18:51;11.30;;;10.10;;
72557;SDS011;60583;50.094;8.748;2023-06-22T08:21:16;11.52;;;10.00;;
72557;SDS011;60583;50.094;8.748;2023-06-22T08:23:42;14.00;;;10.48;;
72557;SDS011;60583;50.094;8.748;2023-06-22T08:26:07;13.02;;;10.73;;
72557;SDS011;60583;50.094;8.748;2023-06-22T08:28:32;13.57;;;11.30;;
72557;SDS011;60583;50.094;8.748;2023-06-22T08:30:59;18.10;;;15.65;;
72557;SDS011;60583;50.094;8.748;2023-06-22T08:33:25;14.45;;;10.50;;
72557;SDS011;60583;50.094;8.748;2023-06-22T08:35:53;12.73;;;10.20;;
72557;SDS011;60583;50.094;8.748;2023-06-22T08:38:20;13.15;;;10.50;;
72557;SDS011;60583;50.094;8.748;2023-06-22T08:40:45;13.32;;;10.65;;
72557;SDS011;60583;50.094;8.748;2023-06-22T08:43:10;12.13;;;10.50;;
72557;SDS011;60583;50.094;8.748;2023-06-22T08:45:36;13.07;;;10.95;;
72557;SDS011;60583;50.094;8.748;2023-06-22T08:48:02;23.80;;;18.58;;
72557;SDS011;60583;50.094;8.748;2023-06-22T08:50:27;12.30;;;11.00;;
72557;SDS011;60583;50.094;8.748;2023-06-22T08:52:52;13.02;;;10.68;;
72557;SDS011;60583;50.094;8.748;2023-06-22T08:55:18;12.18;;;10.68;;
72557;SDS011;60583;50.094;8.748;2023-06-22T08:57:43;13.20;;;10.68;;
72557;SDS011;60583;50.094;8.748;2023-06-22T09:00:09;11.95;;;9.93;;
72557;SDS011;60583;50.094;8.748;2023-06-22T09:02:45;13.50;;;9.63;;
72557;SDS011;60583;50.094;8.748;2023-06-22T09:05:11;15.23;;;12.48;;
72557;SDS011;60583;50.094;8.748;2023-06-22T09:07:37;11.30;;;10.10;;
72557;SDS011;60583;50.094;8.748;2023-06-22T09:10:03;11.90;;;10.00;;
72557;SDS011;60583;50.094;8.748;2023-06-22T09:12:30;13.18;;;10.30;;
72557;SDS011;60583;50.094;8.748;2023-06-22T09:14:55;11.35;;;10.20;;
72557;SDS011;60583;50.094;8.748;2023-06-22T09:17:21;10.73;;;9.60;;
72557;SDS011;60583;50.094;8.748;2023-06-22T09:19:47;11.32;;;9.32;;
72557;SDS011;60583;50.094;8.748;2023-06-22T09:22:14;12.10;;;10.80;;
72557;SDS011;60583;50.094;8.748;2023-06-22T09:24:39;14.15;;;11.38;;
72557;SDS011;60583;50.094;8.748;2023-06-22T09:27:05;17.90;;;15.45;;
72557;SDS011;60583;50.094;8.748;2023-06-22T09:29:30;13.30;;;11.05;;
72557;SDS011;60583;50.094;8.748;2023-06-22T09:31:58;11.73;;;10.32;;
72557;SDS011;60583;50.094;8.748;2023-06-22T09:34:24;11.05;;;9.63;;
72557;SDS011;60583;50.094;8.748;2023-06-22T09:36:49;10.23;;;8.07;;
72557;SDS011;60583;50.094;8.748;2023-06-22T09:39:15;9.10;;;8.20;;
72557;SDS011;60583;50.094;8.748;2023-06-22T09:41:40;9.85;;;8.43;;
72557;SDS011;60583;50.094;8.748;2023-06-22T09:44:06;10.32;;;7.85;;
72557;SDS011;60583;50.094;8.748;2023-06-22T09:46:31;9.60;;;8.02;;
72557;SDS011;60583;50.094;8.748;2023-06-22T09:48:56;9.50;;;8.30;;
72557;SDS011;60583;50.094;8.748;2023-06-22T09:51:22;10.23;;;8.10;;
72557;SDS011;60583;50.094;8.748;2023-06-22T09:53:49;9.43;;;8.13;;
72557;SDS011;60583;50.094;8.748;2023-06-22T09:56:15;9.23;;;7.88;;
72557;SDS011;60583;50.094;8.748;2023-06-22T09:58:41;10.70;;;8.50;;
72557;SDS011;60583;50.094;8.748;2023-06-22T10:01:07;8.98;;;7.70;;
72557;SDS011;60583;50.094;8.748;2023-06-22T10:03:33;12.15;;;10.88;;
72557;SDS011;60583;50.094;8.748;2023-06-22T10:05:58;14.07;;;12.55;;
72557;SDS011;60583;50.094;8.748;2023-06-22T10:08:24;11.02;;;9.82;;
72557;SDS011;60583;50.094;8.748;2023-06-22T10:10:49;10.60;;;8.40;;
72557;SDS011;60583;50.094;8.748;2023-06-22T10:13:14;10.27;;;8.38;;
72557;SDS011;60583;50.094;8.748;2023-06-22T10:15:40;9.55;;;7.95;;
72557;SDS011;60583;50.094;8.748;2023-06-22T10:18:06;8.73;;;7.47;;
72557;SDS011;60583;50.094;8.748;2023-06-22T10:20:32;11.27;;;8.77;;
72557;SDS011;60583;50.094;8.748;2023-06-22T10:22:58;9.85;;;8.10;;
72557;SDS011;60583;50.094;8.748;2023-06-22T10:25:24;10.30;;;7.80;;
72557;SDS011;60583;50.094;8.748;2023-06-22T10:27:49;8.75;;;7.50;;
72557;SDS011;60583;50.094;8.748;2023-06-22T10:30:15;9.85;;;7.97;;
72557;SDS011;60583;50.094;8.748;2023-06-22T10:32:41;13.13;;;8.60;;
72557;SDS011;60583;50.094;8.748;2023-06-22T10:35:08;8.85;;;7.78;;
72557;SDS011;60583;50.094;8.748;2023-06-22T10:37:36;8.82;;;7.40;;
72557;SDS011;60583;50.094;8.748;2023-06-22T10:40:01;10.50;;;8.07;;
72557;SDS011;60583;50.094;8.748;2023-06-22T10:42:27;9.43;;;7.97;;
72557;SDS011;60583;50.094;8.748;2023-06-22T10:44:52;8.70;;;7.57;;
72557;SDS011;60583;50.094;8.748;2023-06-22T10:47:18;10.60;;;7.97;;
72557;SDS011;60583;50.094;8.748;2023-06-22T10:49:43;9.68;;;7.68;;
72557;SDS011;60583;50.094;8.748;2023-06-22T10:52:08;8.60;;;7.38;;
72557;SDS011;60583;50.094;8.748;2023-06-22T10:54:34;10.82;;;8.13;;
72557;SDS011;60583;50.094;8.748;2023-06-22T10:57:01;15.40;;;11.95;;
72557;SDS011;60583;50.094;8.748;2023-06-22T10:59:26;9.52;;;8.02;;
72557;SDS011;60583;50.094;8.748;2023-06-22T11:01:53;9.52;;;7.72;;
72557;SDS011;60583;50.094;8.748;2023-06-22T11:04:20;9.88;;;8.25;;
72557;SDS011;60583;50.094;8.748;2023-06-22T11:06:45;9.18;;;7.68;;
72557;SDS011;60583;50.094;8.748;2023-06-22T11:09:10;10.40;;;7.80;;
72557;SDS011;60583;50.094;8.748;2023-06-22T11:11:36;10.88;;;8.65;;
72557;SDS011;60583;50.094;8.748;2023-06-22T11:14:02;10.00;;;8.18;;
72557;SDS011;60583;50.094;8.748;2023-06-22T11:16:27;14.60;;;12.30;;
72557;SDS011;60583;50.094;8.748;2023-06-22T11:18:53;18.35;;;16.42;;
72557;SDS011;60583;50.094;8.748;2023-06-22T11:21:18;9.20;;;7.72;;
72557;SDS011;60583;50.094;8.748;2023-06-22T11:23:44;9.77;;;8.60;;
72557;SDS011;60583;50.094;8.748;2023-06-22T11:26:10;10.60;;;8.45;;
72557;SDS011;60583;50.094;8.748;2023-06-22T11:28:35;11.25;;;8.20;;
72557;SDS011;60583;50.094;8.748;2023-06-22T11:31:01;10.88;;;8.40;;
72557;SDS011;60583;50.094;8.748;2023-06-22T11:33:27;9.77;;;8.40;;
72557;SDS011;60583;50.094;8.748;2023-06-22T11:35:52;10.98;;;9.15;;
72557;SDS011;60583;50.094;8.748;2023-06-22T11:38:17;11.10;;;8.45;;
72557;SDS011;60583;50.094;8.748;2023-06-22T11:40:43;11.15;;;8.80;;
72557;SDS011;60583;50.094;8.748;2023-06-22T11:43:08;10.00;;;8.73;;
72557;SDS011;60583;50.094;8.748;2023-06-22T11:45:33;11.52;;;9.10;;
72557;SDS011;60583;50.094;8.748;2023-06-22T11:47:59;11.00;;;7.93;;
72557;SDS011;60583;50.094;8.748;2023-06-22T11:50:24;10.23;;;8.40;;
72557;SDS011;60583;50.094;8.748;2023-06-22T11:52:50;10.48;;;7.75;;
72557;SDS011;60583;50.094;8.748;2023-06-22T11:55:15;10.27;;;8.30;;
72557;SDS011;60583;50.094;8.748;2023-06-22T11:57:52;10.25;;;7.90;;
72557;SDS011;60583;50.094;8.748;2023-06-22T12:00:20;12.35;;;8.40;;
72557;SDS011;60583;50.094;8.748;2023-06-22T12:02:46;11.13;;;9.27;;
72557;SDS011;60583;50.094;8.748;2023-06-22T12:05:11;10.52;;;8.05;;
72557;SDS011;60583;50.094;8.748;2023-06-22T12:07:37;10.10;;;8.48;;
72557;SDS011;60583;50.094;8.748;2023-06-22T12:10:03;11.65;;;8.80;;
72557;SDS011;60583;50.094;8.748;2023-06-22T12:12:28;11.20;;;8.65;;
72557;SDS011;60583;50.094;8.748;2023-06-22T12:14:54;11.43;;;8.05;;
72557;SDS011;60583;50.094;8.748;2023-06-22T12:17:19;10.68;;;8.13;;
72557;SDS011;60583;50.094;8.748;2023-06-22T12:19:45;10.80;;;9.05;;
72557;SDS011;60583;50.094;8.748;2023-06-22T12:22:10;11.18;;;8.40;;
72557;SDS011;60583;50.094;8.748;2023-06-22T12:24:36;10.95;;;8.70;;
72557;SDS011;60583;50.094;8.748;2023-06-22T12:27:01;10.48;;;8.35;;
72557;SDS011;60583;50.094;8.748;2023-06-22T12:29:28;11.98;;;8.38;;
72557;SDS011;60583;50.094;8.748;2023-06-22T12:31:54;10.52;;;8.35;;
72557;SDS011;60583;50.094;8.748;2023-06-22T12:34:19;10.00;;;7.90;;
72557;SDS011;60583;50.094;8.748;2023-06-22T12:36:44;11.82;;;7.97;;
72557;SDS011;60583;50.094;8.748;2023-06-22T12:39:12;9.90;;;8.20;;
72557;SDS011;60583;50.094;8.748;2023-06-22T12:41:37;11.07;;;8.02;;
72557;SDS011;60583;50.094;8.748;2023-06-22T12:44:03;9.75;;;7.45;;
72557;SDS011;60583;50.094;8.748;2023-06-22T12:46:28;11.77;;;7.55;;
72557;SDS011;60583;50.094;8.748;2023-06-22T12:48:55;10.32;;;7.82;;
72557;SDS011;60583;50.094;8.748;2023-06-22T12:51:21;15.07;;;8.10;;
72557;SDS011;60583;50.094;8.748;2023-06-22T12:53:47;12.57;;;8.45;;
72557;SDS011;60583;50.094;8.748;2023-06-22T12:56:13;13.48;;;8.70;;
72557;SDS011;60583;50.094;8.748;2023-06-22T12:58:38;10.77;;;8.27;;
72557;SDS011;60583;50.094;8.748;2023-06-22T13:01:04;11.68;;;8.18;;
72557;SDS011;60583;50.094;8.748;2023-06-22T13:03:29;11.23;;;7.95;;
72557;SDS011;60583;50.094;8.748;2023-06-22T13:05:54;10.25;;;7.30;;
72557;SDS011;60583;50.094;8.748;2023-06-22T13:08:20;11.65;;;8.27;;
72557;SDS011;60583;50.094;8.748;2023-06-22T13:10:45;10.30;;;8.77;;
72557;SDS011;60583;50.094;8.748;2023-06-22T13:13:11;11.07;;;8.75;;
72557;SDS011;60583;50.094;8.748;2023-06-22T13:15:36;12.55;;;8.35;;
72557;SDS011;60583;50.094;8.748;2023-06-22T13:18:01;9.73;;;8.73;;
72557;SDS011;60583;50.094;8.748;2023-06-22T13:20:28;16.23;;;9.45;;
72557;SDS011;60583;50.094;8.748;2023-06-22T13:22:54;11.73;;;8.05;;
72557;SDS011;60583;50.094;8.748;2023-06-22T13:25:20;12.93;;;9.40;;
72557;SDS011;60583;50.094;8.748;2023-06-22T13:27:48;12.60;;;8.20;;
72557;SDS011;60583;50.094;8.748;2023-06-22T13:30:14;12.30;;;8.77;;
72557;SDS011;60583;50.094;8.748;2023-06-22T13:32:40;12.63;;;8.52;;
72557;SDS011;60583;50.094;8.748;2023-06-22T13:35:07;10.80;;;7.85;;
72557;SDS011;60583;50.094;8.748;2023-06-22T13:37:35;10.15;;;8.40;;
72557;SDS011;60583;50.094;8.748;2023-06-22T13:40:01;10.23;;;9.00;;
72557;SDS011;60583;50.094;8.748;2023-06-22T13:42:30;11.93;;;8.52;;
72557;SDS011;60583;50.094;8.748;2023-06-22T13:44:55;12.18;;;9.18;;
72557;SDS011;60583;50.094;8.748;2023-06-22T13:47:20;11.50;;;9.07;;
72557;SDS011;60583;50.094;8.748;2023-06-22T13:49:46;13.55;;;8.65;;
72557;SDS011;60583;50.094;8.748;2023-06-22T13:52:11;12.15;;;8.45;;
72557;SDS011;60583;50.094;8.748;2023-06-22T13:54:38;10.70;;;8.27;;
72557;SDS011;60583;50.094;8.748;2023-06-22T13:57:03;12.93;;;8.48;;
72557;SDS011;60583;50.094;8.748;2023-06-22T13:59:29;15.07;;;10.07;;
72557;SDS011;60583;50.094;8.748;2023-06-22T14:01:55;12.75;;;9.15;;
72557;SDS011;60583;50.094;8.748;2023-06-22T14:04:21;12.73;;;8.77;;
72557;SDS011;60583;50.094;8.748;2023-06-22T14:06:48;11.27;;;7.60;;
72557;SDS011;60583;50.094;8.748;2023-06-22T14:09:13;12.60;;;7.85;;
72557;SDS011;60583;50.094;8.748;2023-06-22T14:11:39;12.52;;;7.43;;
72557;SDS011;60583;50.094;8.748;2023-06-22T14:14:04;12.82;;;8.10;;
72557;SDS011;60583;50.094;8.748;2023-06-22T14:16:29;10.82;;;8.85;;
72557;SDS011;60583;50.094;8.748;2023-06-22T14:18:55;11.60;;;8.50;;
72557;SDS011;60583;50.094;8.748;2023-06-22T14:21:20;12.25;;;8.63;;
72557;SDS011;60583;50.094;8.748;2023-06-22T14:23:46;12.15;;;8.70;;
72557;SDS011;60583;50.094;8.748;2023-06-22T14:26:14;12.50;;;8.30;;
72557;SDS011;60583;50.094;8.748;2023-06-22T14:28:43;10.15;;;8.40;;
72557;SDS011;60583;50.094;8.748;2023-06-22T14:31:13;13.20;;;8.50;;
72557;SDS011;60583;50.094;8.748;2023-06-22T14:33:39;11.80;;;9.00;;
72557;SDS011;60583;50.094;8.748;2023-06-22T14:36:05;11.18;;;7.25;;